sensor_id;sensor_type;location;lat;lon;timestamp;P1;durP1;ratioP1;P2;durP2;ratioP2
4389;SDS011;2209;48.982;8.406;2023-02-08T00:00:59;17.37;;;11.40;;
4389;SDS011;2209;48.982;8.406;2023-02-08T00:03:21;17.00;;;12.00;;
4389;SDS011;2209;48.982;8.406;2023-02-08T00:05:43;14.83;;;11.27;;
4389;SDS011;2209;48.982;8.406;2023-02-08T00:08:05;17.43;;;11.20;;
4389;SDS011;2209;48.982;8.406;2023-02-08T00:10:28;14.40;;;11.07;;
4389;SDS011;2209;48.982;8.406;2023-02-08T00:12:53;14.13;;;12.23;;
4389;SDS011;2209;48.982;8.406;2023-02-08T00:15:15;16.10;;;12.30;;
4389;SDS011;2209;48.982;8.406;2023-02-08T00:17:38;17.23;;;11.73;;
4389;SDS011;2209;48.982;8.406;2023-02-08T00:20:00;14.13;;;10.77;;
4389;SDS011;2209;48.982;8.406;2023-02-08T00:22:22;18.83;;;11.80;;
4389;SDS011;2209;48.982;8.406;2023-02-08T00:24:44;18.00;;;11.87;;
4389;SDS011;2209;48.982;8.406;2023-02-08T00:27:07;13.87;;;11.20;;
4389;SDS011;2209;48.982;8.406;2023-02-08T00:29:30;16.10;;;11.50;;
4389;SDS011;2209;48.982;8.406;2023-02-08T00:31:52;16.53;;;11.50;;
4389;SDS011;2209;48.982;8.406;2023-02-08T00:34:15;14.03;;;10.50;;
4389;SDS011;2209;48.982;8.406;2023-02-08T00:36:37;16.70;;;11.83;;
4389;SDS011;2209;48.982;8.406;2023-02-08T00:38:59;16.77;;;12.10;;
4389;SDS011;2209;48.982;8.406;2023-02-08T00:41:21;15.40;;;11.60;;
4389;SDS011;2209;48.982;8.406;2023-02-08T00:43:43;18.40;;;12.90;;
4389;SDS011;2209;48.982;8.406;2023-02-08T00:46:07;16.70;;;12.37;;
4389;SDS011;2209;48.982;8.406;2023-02-08T00:48:29;18.60;;;12.90;;
4389;SDS011;2209;48.982;8.406;2023-02-08T00:50:56;16.60;;;12.40;;
4389;SDS011;2209;48.982;8.406;2023-02-08T00:53:19;16.27;;;12.50;;
4389;SDS011;2209;48.982;8.406;2023-02-08T00:55:41;15.60;;;11.23;;
4389;SDS011;2209;48.982;8.406;2023-02-08T00:58:03;14.90;;;12.93;;
4389;SDS011;2209;48.982;8.406;2023-02-08T01:00:25;15.73;;;11.67;;
4389;SDS011;2209;48.982;8.406;2023-02-08T01:02:48;16.57;;;12.47;;
4389;SDS011;2209;48.982;8.406;2023-02-08T01:05:10;19.87;;;12.60;;
4389;SDS011;2209;48.982;8.406;2023-02-08T01:07:34;19.43;;;14.13;;
4389;SDS011;2209;48.982;8.406;2023-02-08T01:09:57;17.10;;;12.23;;
4389;SDS011;2209;48.982;8.406;2023-02-08T01:12:20;15.90;;;11.07;;
4389;SDS011;2209;48.982;8.406;2023-02-08T01:14:42;18.70;;;13.37;;
4389;SDS011;2209;48.982;8.406;2023-02-08T01:17:04;17.07;;;12.93;;
4389;SDS011;2209;48.982;8.406;2023-02-08T01:19:27;14.87;;;11.83;;
4389;SDS011;2209;48.982;8.406;2023-02-08T01:21:49;20.07;;;13.43;;
4389;SDS011;2209;48.982;8.406;2023-02-08T01:24:11;18.90;;;12.80;;
4389;SDS011;2209;48.982;8.406;2023-02-08T01:26:33;17.90;;;12.47;;
4389;SDS011;2209;48.982;8.406;2023-02-08T01:28:56;19.63;;;13.40;;
4389;SDS011;2209;48.982;8.406;2023-02-08T01:31:19;17.10;;;12.50;;
4389;SDS011;2209;48.982;8.406;2023-02-08T01:33:43;22.13;;;14.20;;
4389;SDS011;2209;48.982;8.406;2023-02-08T01:36:07;18.20;;;12.60;;
4389;SDS011;2209;48.982;8.406;2023-02-08T01:38:30;15.40;;;12.17;;
4389;SDS011;2209;48.982;8.406;2023-02-08T01:40:53;14.70;;;12.73;;
4389;SDS011;2209;48.982;8.406;2023-02-08T01:43:18;16.73;;;13.27;;
4389;SDS011;2209;48.982;8.406;2023-02-08T01:45:42;17.40;;;12.83;;
4389;SDS011;2209;48.982;8.406;2023-02-08T01:48:05;16.37;;;12.13;;
4389;SDS011;2209;48.982;8.406;2023-02-08T01:50:33;21.43;;;13.10;;
4389;SDS011;2209;48.982;8.406;2023-02-08T01:53:03;15.80;;;11.90;;
4389;SDS011;2209;48.982;8.406;2023-02-08T01:55:27;19.60;;;13.00;;
4389;SDS011;2209;48.982;8.406;2023-02-08T01:57:53;19.03;;;13.23;;
4389;SDS011;2209;48.982;8.406;2023-02-08T02:00:20;15.97;;;12.27;;
4389;SDS011;2209;48.982;8.406;2023-02-08T02:02:44;18.50;;;12.93;;
4389;SDS011;2209;48.982;8.406;2023-02-08T02:05:08;20.17;;;12.70;;
4389;SDS011;2209;48.982;8.406;2023-02-08T02:07:31;16.47;;;13.00;;
4389;SDS011;2209;48.982;8.406;2023-02-08T02:09:56;16.40;;;13.87;;
4389;SDS011;2209;48.982;8.406;2023-02-08T02:12:23;17.27;;;12.50;;
4389;SDS011;2209;48.982;8.406;2023-02-08T02:14:46;19.90;;;13.50;;
4389;SDS011;2209;48.982;8.406;2023-02-08T02:17:09;18.50;;;13.47;;
4389;SDS011;2209;48.982;8.406;2023-02-08T02:19:37;15.70;;;11.87;;
4389;SDS011;2209;48.982;8.406;2023-02-08T02:22:11;20.43;;;13.93;;
4389;SDS011;2209;48.982;8.406;2023-02-08T02:25:01;18.77;;;12.20;;
4389;SDS011;2209;48.982;8.406;2023-02-08T02:30:45;16.20;;;12.27;;
4389;SDS011;2209;48.982;8.406;2023-02-08T02:33:35;19.90;;;12.17;;
4389;SDS011;2209;48.982;8.406;2023-02-08T02:36:15;18.13;;;12.80;;
4389;SDS011;2209;48.982;8.406;2023-02-08T02:38:47;17.90;;;14.00;;
4389;SDS011;2209;48.982;8.406;2023-02-08T02:41:24;17.97;;;13.00;;
4389;SDS011;2209;48.982;8.406;2023-02-08T02:44:17;17.53;;;13.93;;
4389;SDS011;2209;48.982;8.406;2023-02-08T02:46:45;19.70;;;13.30;;
4389;SDS011;2209;48.982;8.406;2023-02-08T02:49:14;19.00;;;13.20;;
4389;SDS011;2209;48.982;8.406;2023-02-08T02:51:39;18.17;;;12.90;;
4389;SDS011;2209;48.982;8.406;2023-02-08T02:54:10;19.03;;;13.67;;
4389;SDS011;2209;48.982;8.406;2023-02-08T02:56:38;18.80;;;13.70;;
4389;SDS011;2209;48.982;8.406;2023-02-08T02:59:04;16.00;;;12.43;;
4389;SDS011;2209;48.982;8.406;2023-02-08T03:01:28;20.73;;;13.60;;
4389;SDS011;2209;48.982;8.406;2023-02-08T03:03:51;18.50;;;13.10;;
4389;SDS011;2209;48.982;8.406;2023-02-08T03:06:16;21.40;;;13.80;;
4389;SDS011;2209;48.982;8.406;2023-02-08T03:08:52;17.80;;;13.57;;
4389;SDS011;2209;48.982;8.406;2023-02-08T03:11:24;17.00;;;12.70;;
4389;SDS011;2209;48.982;8.406;2023-02-08T03:13:53;18.97;;;13.90;;
4389;SDS011;2209;48.982;8.406;2023-02-08T03:16:25;16.83;;;13.00;;
4389;SDS011;2209;48.982;8.406;2023-02-08T03:18:57;16.37;;;13.93;;
4389;SDS011;2209;48.982;8.406;2023-02-08T03:21:30;20.93;;;14.97;;
4389;SDS011;2209;48.982;8.406;2023-02-08T03:24:01;22.10;;;13.87;;
4389;SDS011;2209;48.982;8.406;2023-02-08T03:26:30;23.20;;;14.93;;
4389;SDS011;2209;48.982;8.406;2023-02-08T03:28:57;20.80;;;13.87;;
4389;SDS011;2209;48.982;8.406;2023-02-08T03:31:27;24.67;;;14.23;;
4389;SDS011;2209;48.982;8.406;2023-02-08T03:33:55;19.17;;;13.80;;
4389;SDS011;2209;48.982;8.406;2023-02-08T03:36:23;19.67;;;14.00;;
4389;SDS011;2209;48.982;8.406;2023-02-08T03:38:49;18.83;;;14.23;;
4389;SDS011;2209;48.982;8.406;2023-02-08T03:41:14;17.73;;;12.37;;
4389;SDS011;2209;48.982;8.406;2023-02-08T03:43:42;19.10;;;13.53;;
4389;SDS011;2209;48.982;8.406;2023-02-08T03:46:09;19.53;;;14.10;;
4389;SDS011;2209;48.982;8.406;2023-02-08T03:48:37;20.30;;;14.00;;
4389;SDS011;2209;48.982;8.406;2023-02-08T03:51:03;18.50;;;13.50;;
4389;SDS011;2209;48.982;8.406;2023-02-08T03:53:26;22.50;;;14.40;;
4389;SDS011;2209;48.982;8.406;2023-02-08T03:55:54;19.60;;;13.97;;
4389;SDS011;2209;48.982;8.406;2023-02-08T03:58:22;20.33;;;14.00;;
4389;SDS011;2209;48.982;8.406;2023-02-08T04:00:47;16.80;;;12.90;;
4389;SDS011;2209;48.982;8.406;2023-02-08T04:03:16;16.13;;;13.30;;
4389;SDS011;2209;48.982;8.406;2023-02-08T04:05:41;24.10;;;13.83;;
4389;SDS011;2209;48.982;8.406;2023-02-08T04:08:04;19.43;;;13.90;;
4389;SDS011;2209;48.982;8.406;2023-02-08T04:10:26;16.50;;;12.70;;
4389;SDS011;2209;48.982;8.406;2023-02-08T04:12:50;19.23;;;12.90;;
4389;SDS011;2209;48.982;8.406;2023-02-08T04:15:12;18.23;;;12.83;;
4389;SDS011;2209;48.982;8.406;2023-02-08T04:17:34;18.97;;;12.33;;
4389;SDS011;2209;48.982;8.406;2023-02-08T04:19:56;19.43;;;12.47;;
4389;SDS011;2209;48.982;8.406;2023-02-08T04:22:19;16.30;;;13.30;;
4389;SDS011;2209;48.982;8.406;2023-02-08T04:24:41;21.10;;;13.40;;
4389;SDS011;2209;48.982;8.406;2023-02-08T04:27:03;18.00;;;13.23;;
4389;SDS011;2209;48.982;8.406;2023-02-08T04:29:27;18.03;;;12.60;;
4389;SDS011;2209;48.982;8.406;2023-02-08T04:31:49;17.47;;;13.87;;
4389;SDS011;2209;48.982;8.406;2023-02-08T04:34:11;20.03;;;13.93;;
4389;SDS011;2209;48.982;8.406;2023-02-08T04:36:33;15.63;;;12.90;;
4389;SDS011;2209;48.982;8.406;2023-02-08T04:38:55;20.57;;;13.97;;
4389;SDS011;2209;48.982;8.406;2023-02-08T04:41:17;19.37;;;14.13;;
4389;SDS011;2209;48.982;8.406;2023-02-08T04:43:39;17.90;;;14.37;;
4389;SDS011;2209;48.982;8.406;2023-02-08T04:46:03;21.50;;;13.77;;
4389;SDS011;2209;48.982;8.406;2023-02-08T04:48:25;21.60;;;13.03;;
4389;SDS011;2209;48.982;8.406;2023-02-08T04:50:47;21.13;;;14.00;;
4389;SDS011;2209;48.982;8.406;2023-02-08T04:53:09;19.20;;;12.80;;
4389;SDS011;2209;48.982;8.406;2023-02-08T04:55:31;17.70;;;13.30;;
4389;SDS011;2209;48.982;8.406;2023-02-08T04:57:53;16.80;;;13.23;;
4389;SDS011;2209;48.982;8.406;2023-02-08T05:00:16;19.40;;;13.67;;
4389;SDS011;2209;48.982;8.406;2023-02-08T05:02:40;16.77;;;13.33;;
4389;SDS011;2209;48.982;8.406;2023-02-08T05:05:02;16.37;;;13.43;;
4389;SDS011;2209;48.982;8.406;2023-02-08T05:07:24;21.40;;;14.80;;
4389;SDS011;2209;48.982;8.406;2023-02-08T05:09:46;19.47;;;12.47;;
4389;SDS011;2209;48.982;8.406;2023-02-08T05:12:08;16.80;;;13.23;;
4389;SDS011;2209;48.982;8.406;2023-02-08T05:14:30;17.80;;;13.23;;
4389;SDS011;2209;48.982;8.406;2023-02-08T05:16:52;17.73;;;12.47;;
4389;SDS011;2209;48.982;8.406;2023-02-08T05:19:15;20.30;;;13.90;;
4389;SDS011;2209;48.982;8.406;2023-02-08T05:21:37;18.93;;;14.40;;
4389;SDS011;2209;48.982;8.406;2023-02-08T05:24:00;15.30;;;12.60;;
4389;SDS011;2209;48.982;8.406;2023-02-08T05:26:22;19.80;;;12.63;;
4389;SDS011;2209;48.982;8.406;2023-02-08T05:28:44;20.23;;;13.73;;
4389;SDS011;2209;48.982;8.406;2023-02-08T05:31:08;19.97;;;13.43;;
4389;SDS011;2209;48.982;8.406;2023-02-08T05:33:31;18.50;;;14.30;;
4389;SDS011;2209;48.982;8.406;2023-02-08T05:35:54;17.60;;;13.20;;
4389;SDS011;2209;48.982;8.406;2023-02-08T05:38:16;19.63;;;14.00;;
4389;SDS011;2209;48.982;8.406;2023-02-08T05:40:38;20.20;;;13.20;;
4389;SDS011;2209;48.982;8.406;2023-02-08T05:43:00;20.43;;;14.00;;
4389;SDS011;2209;48.982;8.406;2023-02-08T05:45:22;20.23;;;14.17;;
4389;SDS011;2209;48.982;8.406;2023-02-08T05:47:45;21.00;;;14.70;;
4389;SDS011;2209;48.982;8.406;2023-02-08T05:50:07;21.57;;;14.23;;
4389;SDS011;2209;48.982;8.406;2023-02-08T05:52:31;17.80;;;13.17;;
4389;SDS011;2209;48.982;8.406;2023-02-08T05:54:53;20.50;;;14.23;;
4389;SDS011;2209;48.982;8.406;2023-02-08T05:57:15;17.67;;;13.50;;
4389;SDS011;2209;48.982;8.406;2023-02-08T05:59:37;19.53;;;13.60;;
4389;SDS011;2209;48.982;8.406;2023-02-08T06:01:59;17.90;;;13.23;;
4389;SDS011;2209;48.982;8.406;2023-02-08T06:04:21;17.37;;;14.33;;
4389;SDS011;2209;48.982;8.406;2023-02-08T06:06:43;18.13;;;13.70;;
4389;SDS011;2209;48.982;8.406;2023-02-08T06:09:07;19.33;;;14.40;;
4389;SDS011;2209;48.982;8.406;2023-02-08T06:11:29;20.33;;;14.67;;
4389;SDS011;2209;48.982;8.406;2023-02-08T06:13:51;20.40;;;14.17;;
4389;SDS011;2209;48.982;8.406;2023-02-08T06:16:13;20.30;;;12.83;;
4389;SDS011;2209;48.982;8.406;2023-02-08T06:18:35;17.60;;;13.33;;
4389;SDS011;2209;48.982;8.406;2023-02-08T06:20:57;19.10;;;13.20;;
4389;SDS011;2209;48.982;8.406;2023-02-08T06:23:20;18.53;;;13.20;;
4389;SDS011;2209;48.982;8.406;2023-02-08T06:25:44;22.07;;;15.53;;
4389;SDS011;2209;48.982;8.406;2023-02-08T06:28:06;18.00;;;13.50;;
4389;SDS011;2209;48.982;8.406;2023-02-08T06:30:30;19.97;;;14.50;;
4389;SDS011;2209;48.982;8.406;2023-02-08T06:32:52;15.30;;;12.77;;
4389;SDS011;2209;48.982;8.406;2023-02-08T06:35:14;18.63;;;13.40;;
4389;SDS011;2209;48.982;8.406;2023-02-08T06:37:36;16.20;;;12.87;;
4389;SDS011;2209;48.982;8.406;2023-02-08T06:39:58;21.63;;;14.60;;
4389;SDS011;2209;48.982;8.406;2023-02-08T06:42:22;17.93;;;14.20;;
4389;SDS011;2209;48.982;8.406;2023-02-08T06:44:45;21.50;;;14.40;;
4389;SDS011;2209;48.982;8.406;2023-02-08T06:47:09;18.47;;;14.10;;
4389;SDS011;2209;48.982;8.406;2023-02-08T06:49:31;20.23;;;13.57;;
4389;SDS011;2209;48.982;8.406;2023-02-08T06:51:53;19.37;;;14.03;;
4389;SDS011;2209;48.982;8.406;2023-02-08T06:54:15;19.97;;;12.93;;
4389;SDS011;2209;48.982;8.406;2023-02-08T06:56:38;18.70;;;13.40;;
4389;SDS011;2209;48.982;8.406;2023-02-08T06:59:01;21.57;;;14.10;;
4389;SDS011;2209;48.982;8.406;2023-02-08T07:01:23;20.93;;;15.10;;
4389;SDS011;2209;48.982;8.406;2023-02-08T07:03:45;18.53;;;13.13;;
4389;SDS011;2209;48.982;8.406;2023-02-08T07:06:10;17.27;;;13.10;;
4389;SDS011;2209;48.982;8.406;2023-02-08T07:08:33;22.00;;;14.53;;
4389;SDS011;2209;48.982;8.406;2023-02-08T07:10:56;17.30;;;11.83;;
4389;SDS011;2209;48.982;8.406;2023-02-08T07:13:18;18.47;;;13.50;;
4389;SDS011;2209;48.982;8.406;2023-02-08T07:15:41;18.33;;;14.07;;
4389;SDS011;2209;48.982;8.406;2023-02-08T07:18:03;18.63;;;14.00;;
4389;SDS011;2209;48.982;8.406;2023-02-08T07:20:26;18.23;;;13.60;;
4389;SDS011;2209;48.982;8.406;2023-02-08T07:22:48;18.57;;;14.37;;
4389;SDS011;2209;48.982;8.406;2023-02-08T07:25:10;21.33;;;13.83;;
4389;SDS011;2209;48.982;8.406;2023-02-08T07:27:32;18.20;;;14.47;;
4389;SDS011;2209;48.982;8.406;2023-02-08T07:29:54;17.60;;;13.33;;
4389;SDS011;2209;48.982;8.406;2023-02-08T07:32:17;25.20;;;16.27;;
4389;SDS011;2209;48.982;8.406;2023-02-08T07:34:39;18.63;;;13.80;;
4389;SDS011;2209;48.982;8.406;2023-02-08T07:37:02;19.43;;;14.43;;
4389;SDS011;2209;48.982;8.406;2023-02-08T07:39:24;20.87;;;14.70;;
4389;SDS011;2209;48.982;8.406;2023-02-08T07:41:47;18.37;;;13.23;;
4389;SDS011;2209;48.982;8.406;2023-02-08T07:44:09;17.70;;;14.23;;
4389;SDS011;2209;48.982;8.406;2023-02-08T07:46:31;16.40;;;12.50;;
4389;SDS011;2209;48.982;8.406;2023-02-08T07:48:54;20.97;;;13.47;;
4389;SDS011;2209;48.982;8.406;2023-02-08T07:51:17;18.10;;;14.30;;
4389;SDS011;2209;48.982;8.406;2023-02-08T07:53:39;19.50;;;15.70;;
4389;SDS011;2209;48.982;8.406;2023-02-08T07:56:01;18.23;;;13.53;;
4389;SDS011;2209;48.982;8.406;2023-02-08T07:58:24;17.00;;;13.33;;
4389;SDS011;2209;48.982;8.406;2023-02-08T08:00:46;21.03;;;15.00;;
4389;SDS011;2209;48.982;8.406;2023-02-08T08:03:08;20.13;;;14.40;;
4389;SDS011;2209;48.982;8.406;2023-02-08T08:05:32;18.13;;;13.70;;
4389;SDS011;2209;48.982;8.406;2023-02-08T08:07:54;14.60;;;13.07;;
4389;SDS011;2209;48.982;8.406;2023-02-08T08:10:16;20.23;;;13.80;;
4389;SDS011;2209;48.982;8.406;2023-02-08T08:12:38;17.87;;;14.27;;
4389;SDS011;2209;48.982;8.406;2023-02-08T08:15:01;17.90;;;13.47;;
4389;SDS011;2209;48.982;8.406;2023-02-08T08:17:23;19.47;;;15.50;;
4389;SDS011;2209;48.982;8.406;2023-02-08T08:19:45;20.90;;;14.23;;
4389;SDS011;2209;48.982;8.406;2023-02-08T08:22:09;25.40;;;15.13;;
4389;SDS011;2209;48.982;8.406;2023-02-08T08:24:31;24.20;;;15.10;;
4389;SDS011;2209;48.982;8.406;2023-02-08T08:26:57;17.07;;;13.53;;
4389;SDS011;2209;48.982;8.406;2023-02-08T08:29:19;19.67;;;14.47;;
4389;SDS011;2209;48.982;8.406;2023-02-08T08:31:41;20.33;;;14.03;;
4389;SDS011;2209;48.982;8.406;2023-02-08T08:34:04;21.97;;;14.57;;
4389;SDS011;2209;48.982;8.406;2023-02-08T08:36:26;19.60;;;14.17;;
4389;SDS011;2209;48.982;8.406;2023-02-08T08:38:50;21.03;;;14.40;;
4389;SDS011;2209;48.982;8.406;2023-02-08T08:41:13;18.03;;;14.03;;
4389;SDS011;2209;48.982;8.406;2023-02-08T08:43:37;22.63;;;14.73;;
4389;SDS011;2209;48.982;8.406;2023-02-08T08:45:59;21.87;;;13.97;;
4389;SDS011;2209;48.982;8.406;2023-02-08T08:48:21;22.63;;;13.87;;
4389;SDS011;2209;48.982;8.406;2023-02-08T08:50:43;17.97;;;14.30;;
4389;SDS011;2209;48.982;8.406;2023-02-08T08:53:05;16.60;;;12.80;;
4389;SDS011;2209;48.982;8.406;2023-02-08T08:55:29;19.03;;;13.83;;
4389;SDS011;2209;48.982;8.406;2023-02-08T08:57:51;21.50;;;14.60;;
4389;SDS011;2209;48.982;8.406;2023-02-08T09:00:13;20.30;;;14.87;;
4389;SDS011;2209;48.982;8.406;2023-02-08T09:02:35;19.10;;;13.10;;
4389;SDS011;2209;48.982;8.406;2023-02-08T09:04:57;18.10;;;13.40;;
4389;SDS011;2209;48.982;8.406;2023-02-08T09:07:22;22.97;;;15.00;;
4389;SDS011;2209;48.982;8.406;2023-02-08T09:09:44;20.30;;;13.40;;
4389;SDS011;2209;48.982;8.406;2023-02-08T09:12:08;18.37;;;13.87;;
4389;SDS011;2209;48.982;8.406;2023-02-08T09:14:30;21.17;;;14.37;;
4389;SDS011;2209;48.982;8.406;2023-02-08T09:16:53;18.03;;;13.30;;
4389;SDS011;2209;48.982;8.406;2023-02-08T09:19:15;20.80;;;13.87;;
4389;SDS011;2209;48.982;8.406;2023-02-08T09:21:37;19.07;;;14.10;;
4389;SDS011;2209;48.982;8.406;2023-02-08T09:24:00;22.30;;;13.73;;
4389;SDS011;2209;48.982;8.406;2023-02-08T09:26:23;22.53;;;13.53;;
4389;SDS011;2209;48.982;8.406;2023-02-08T09:28:47;23.10;;;14.00;;
4389;SDS011;2209;48.982;8.406;2023-02-08T09:31:09;18.67;;;13.80;;
4389;SDS011;2209;48.982;8.406;2023-02-08T09:33:32;19.73;;;14.20;;
4389;SDS011;2209;48.982;8.406;2023-02-08T09:35:55;21.07;;;14.27;;
4389;SDS011;2209;48.982;8.406;2023-02-08T09:38:17;23.90;;;14.53;;
4389;SDS011;2209;48.982;8.406;2023-02-08T09:40:41;17.90;;;12.83;;
4389;SDS011;2209;48.982;8.406;2023-02-08T09:43:10;24.50;;;14.70;;
4389;SDS011;2209;48.982;8.406;2023-02-08T09:45:41;18.80;;;13.37;;
4389;SDS011;2209;48.982;8.406;2023-02-08T09:48:13;18.33;;;13.70;;
4389;SDS011;2209;48.982;8.406;2023-02-08T09:50:39;22.13;;;13.10;;
4389;SDS011;2209;48.982;8.406;2023-02-08T09:53:06;18.53;;;13.90;;
4389;SDS011;2209;48.982;8.406;2023-02-08T09:55:35;21.13;;;12.40;;
4389;SDS011;2209;48.982;8.406;2023-02-08T09:58:02;20.23;;;13.47;;
4389;SDS011;2209;48.982;8.406;2023-02-08T10:00:30;16.80;;;12.27;;
4389;SDS011;2209;48.982;8.406;2023-02-08T10:02:57;19.03;;;12.60;;
4389;SDS011;2209;48.982;8.406;2023-02-08T10:05:21;18.10;;;12.73;;
4389;SDS011;2209;48.982;8.406;2023-02-08T10:07:46;18.33;;;12.17;;
4389;SDS011;2209;48.982;8.406;2023-02-08T10:10:11;16.97;;;12.47;;
4389;SDS011;2209;48.982;8.406;2023-02-08T10:12:37;18.47;;;12.27;;
4389;SDS011;2209;48.982;8.406;2023-02-08T10:15:12;17.13;;;12.07;;
4389;SDS011;2209;48.982;8.406;2023-02-08T10:17:53;13.30;;;10.00;;
4389;SDS011;2209;48.982;8.406;2023-02-08T10:20:42;15.43;;;10.93;;
4389;SDS011;2209;48.982;8.406;2023-02-08T10:23:15;13.97;;;10.43;;
4389;SDS011;2209;48.982;8.406;2023-02-08T10:25:52;18.43;;;11.30;;
4389;SDS011;2209;48.982;8.406;2023-02-08T10:28:34;16.30;;;11.07;;
4389;SDS011;2209;48.982;8.406;2023-02-08T10:31:09;16.37;;;10.37;;
4389;SDS011;2209;48.982;8.406;2023-02-08T10:33:44;18.07;;;11.20;;
4389;SDS011;2209;48.982;8.406;2023-02-08T10:36:13;12.73;;;9.00;;
4389;SDS011;2209;48.982;8.406;2023-02-08T10:38:38;15.30;;;10.20;;
4389;SDS011;2209;48.982;8.406;2023-02-08T10:41:02;15.63;;;10.00;;
4389;SDS011;2209;48.982;8.406;2023-02-08T10:43:29;16.10;;;10.50;;
4389;SDS011;2209;48.982;8.406;2023-02-08T10:46:00;19.53;;;10.57;;
4389;SDS011;2209;48.982;8.406;2023-02-08T10:48:30;18.13;;;10.77;;
4389;SDS011;2209;48.982;8.406;2023-02-08T10:51:00;15.17;;;9.80;;
4389;SDS011;2209;48.982;8.406;2023-02-08T10:53:22;14.00;;;10.37;;
4389;SDS011;2209;48.982;8.406;2023-02-08T10:55:45;19.33;;;10.73;;
4389;SDS011;2209;48.982;8.406;2023-02-08T10:58:12;14.07;;;10.50;;
4389;SDS011;2209;48.982;8.406;2023-02-08T11:00:37;14.43;;;9.87;;
4389;SDS011;2209;48.982;8.406;2023-02-08T11:03:00;14.97;;;10.30;;
4389;SDS011;2209;48.982;8.406;2023-02-08T11:05:33;14.63;;;10.40;;
4389;SDS011;2209;48.982;8.406;2023-02-08T11:08:05;17.20;;;11.63;;
4389;SDS011;2209;48.982;8.406;2023-02-08T11:10:28;16.90;;;11.17;;
4389;SDS011;2209;48.982;8.406;2023-02-08T11:12:54;15.60;;;10.50;;
4389;SDS011;2209;48.982;8.406;2023-02-08T11:15:24;15.60;;;11.33;;
4389;SDS011;2209;48.982;8.406;2023-02-08T11:17:53;16.70;;;11.90;;
4389;SDS011;2209;48.982;8.406;2023-02-08T11:20:19;15.03;;;10.47;;
4389;SDS011;2209;48.982;8.406;2023-02-08T11:22:52;16.27;;;10.77;;
4389;SDS011;2209;48.982;8.406;2023-02-08T11:27:57;16.70;;;10.80;;
4389;SDS011;2209;48.982;8.406;2023-02-08T11:30:21;16.20;;;11.00;;
4389;SDS011;2209;48.982;8.406;2023-02-08T11:32:45;14.30;;;9.90;;
4389;SDS011;2209;48.982;8.406;2023-02-08T11:35:10;14.23;;;10.23;;
4389;SDS011;2209;48.982;8.406;2023-02-08T11:37:33;13.97;;;10.40;;
4389;SDS011;2209;48.982;8.406;2023-02-08T11:39:56;15.77;;;11.60;;
4389;SDS011;2209;48.982;8.406;2023-02-08T11:42:22;16.30;;;11.57;;
4389;SDS011;2209;48.982;8.406;2023-02-08T11:44:46;15.70;;;11.80;;
4389;SDS011;2209;48.982;8.406;2023-02-08T11:47:10;18.20;;;10.50;;
4389;SDS011;2209;48.982;8.406;2023-02-08T11:49:37;17.87;;;12.37;;
4389;SDS011;2209;48.982;8.406;2023-02-08T11:52:01;14.00;;;9.63;;
4389;SDS011;2209;48.982;8.406;2023-02-08T11:54:32;15.50;;;10.60;;
4389;SDS011;2209;48.982;8.406;2023-02-08T11:57:00;15.40;;;10.47;;
4389;SDS011;2209;48.982;8.406;2023-02-08T11:59:24;12.87;;;9.13;;
4389;SDS011;2209;48.982;8.406;2023-02-08T12:01:48;14.50;;;9.80;;
4389;SDS011;2209;48.982;8.406;2023-02-08T12:04:10;14.80;;;10.10;;
4389;SDS011;2209;48.982;8.406;2023-02-08T12:06:39;15.70;;;10.33;;
4389;SDS011;2209;48.982;8.406;2023-02-08T12:09:26;12.40;;;10.07;;
4389;SDS011;2209;48.982;8.406;2023-02-08T12:11:58;19.10;;;10.00;;
4389;SDS011;2209;48.982;8.406;2023-02-08T12:14:33;15.77;;;11.10;;
4389;SDS011;2209;48.982;8.406;2023-02-08T12:17:14;14.70;;;9.63;;
4389;SDS011;2209;48.982;8.406;2023-02-08T12:20:13;13.30;;;9.20;;
4389;SDS011;2209;48.982;8.406;2023-02-08T12:23:03;12.17;;;8.80;;
4389;SDS011;2209;48.982;8.406;2023-02-08T12:25:49;14.93;;;9.43;;
4389;SDS011;2209;48.982;8.406;2023-02-08T12:28:18;12.40;;;9.73;;
4389;SDS011;2209;48.982;8.406;2023-02-08T12:30:51;14.43;;;10.20;;
4389;SDS011;2209;48.982;8.406;2023-02-08T12:33:23;16.17;;;10.57;;
4389;SDS011;2209;48.982;8.406;2023-02-08T12:36:04;16.50;;;10.93;;
4389;SDS011;2209;48.982;8.406;2023-02-08T12:38:41;16.00;;;10.33;;
4389;SDS011;2209;48.982;8.406;2023-02-08T12:41:34;15.70;;;9.60;;
4389;SDS011;2209;48.982;8.406;2023-02-08T12:44:02;13.87;;;9.10;;
4389;SDS011;2209;48.982;8.406;2023-02-08T12:46:37;16.33;;;9.70;;
4389;SDS011;2209;48.982;8.406;2023-02-08T12:49:19;13.77;;;9.73;;
4389;SDS011;2209;48.982;8.406;2023-02-08T12:51:53;19.43;;;11.80;;
4389;SDS011;2209;48.982;8.406;2023-02-08T12:54:25;15.30;;;10.80;;
4389;SDS011;2209;48.982;8.406;2023-02-08T12:56:53;15.10;;;11.80;;
4389;SDS011;2209;48.982;8.406;2023-02-08T12:59:18;16.40;;;10.73;;
4389;SDS011;2209;48.982;8.406;2023-02-08T13:01:46;13.97;;;10.50;;
4389;SDS011;2209;48.982;8.406;2023-02-08T13:04:12;16.43;;;10.77;;
4389;SDS011;2209;48.982;8.406;2023-02-08T13:06:38;18.50;;;10.90;;
4389;SDS011;2209;48.982;8.406;2023-02-08T13:09:02;16.00;;;10.70;;
4389;SDS011;2209;48.982;8.406;2023-02-08T13:11:29;18.57;;;11.60;;
4389;SDS011;2209;48.982;8.406;2023-02-08T13:13:56;16.53;;;10.60;;
4389;SDS011;2209;48.982;8.406;2023-02-08T13:16:23;16.37;;;9.47;;
4389;SDS011;2209;48.982;8.406;2023-02-08T13:18:52;15.20;;;10.67;;
4389;SDS011;2209;48.982;8.406;2023-02-08T13:21:18;17.83;;;11.40;;
4389;SDS011;2209;48.982;8.406;2023-02-08T13:23:44;14.70;;;10.57;;
4389;SDS011;2209;48.982;8.406;2023-02-08T13:26:10;14.47;;;10.20;;
4389;SDS011;2209;48.982;8.406;2023-02-08T13:28:35;16.57;;;10.93;;
4389;SDS011;2209;48.982;8.406;2023-02-08T13:31:00;16.07;;;11.97;;
4389;SDS011;2209;48.982;8.406;2023-02-08T13:33:29;14.60;;;11.30;;
4389;SDS011;2209;48.982;8.406;2023-02-08T13:35:57;14.07;;;11.60;;
4389;SDS011;2209;48.982;8.406;2023-02-08T13:38:24;15.93;;;11.07;;
4389;SDS011;2209;48.982;8.406;2023-02-08T13:41:00;17.70;;;10.80;;
4389;SDS011;2209;48.982;8.406;2023-02-08T13:43:27;15.70;;;11.50;;
4389;SDS011;2209;48.982;8.406;2023-02-08T13:45:57;18.53;;;12.80;;
4389;SDS011;2209;48.982;8.406;2023-02-08T13:48:20;20.83;;;12.07;;
4389;SDS011;2209;48.982;8.406;2023-02-08T13:50:43;17.70;;;11.20;;
4389;SDS011;2209;48.982;8.406;2023-02-08T13:53:08;17.50;;;11.30;;
4389;SDS011;2209;48.982;8.406;2023-02-08T13:58:35;15.87;;;11.83;;
4389;SDS011;2209;48.982;8.406;2023-02-08T14:01:20;16.67;;;11.47;;
4389;SDS011;2209;48.982;8.406;2023-02-08T14:03:43;14.77;;;11.00;;
4389;SDS011;2209;48.982;8.406;2023-02-08T14:06:25;14.37;;;10.87;;
4389;SDS011;2209;48.982;8.406;2023-02-08T14:08:54;21.27;;;11.90;;
4389;SDS011;2209;48.982;8.406;2023-02-08T14:11:28;25.83;;;12.23;;
4389;SDS011;2209;48.982;8.406;2023-02-08T14:14:00;18.20;;;12.53;;
4389;SDS011;2209;48.982;8.406;2023-02-08T14:16:26;13.83;;;11.23;;
4389;SDS011;2209;48.982;8.406;2023-02-08T14:18:51;17.70;;;10.60;;
4389;SDS011;2209;48.982;8.406;2023-02-08T14:21:20;15.43;;;11.00;;
4389;SDS011;2209;48.982;8.406;2023-02-08T14:23:53;15.17;;;11.17;;
4389;SDS011;2209;48.982;8.406;2023-02-08T14:26:21;15.50;;;10.73;;
4389;SDS011;2209;48.982;8.406;2023-02-08T14:28:44;15.60;;;10.90;;
4389;SDS011;2209;48.982;8.406;2023-02-08T14:31:08;13.50;;;9.77;;
4389;SDS011;2209;48.982;8.406;2023-02-08T14:33:33;13.90;;;10.63;;
4389;SDS011;2209;48.982;8.406;2023-02-08T14:35:58;14.57;;;11.10;;
4389;SDS011;2209;48.982;8.406;2023-02-08T14:41:47;20.57;;;11.13;;
4389;SDS011;2209;48.982;8.406;2023-02-08T14:47:14;13.77;;;9.80;;
4389;SDS011;2209;48.982;8.406;2023-02-08T14:50:15;12.93;;;9.67;;
4389;SDS011;2209;48.982;8.406;2023-02-08T14:52:39;12.27;;;9.40;;
4389;SDS011;2209;48.982;8.406;2023-02-08T14:55:11;13.80;;;9.60;;